Time;durP1;ratioP1;P1;durP2;ratioP2;P2;SDS_P1;SDS_P2;PMS_P1;PMS_P2;Temp;Humidity;BMP_temperature;BMP_pressure;BME280_temperature;BME280_humidity;BME280_pressure;Samples;Min_cycle;Max_cycle;Signal;HPM_P1;HPM_P2
2021/06/08 00:00:01;;;;;;;1999.90;999.90;;;16.70;99.60;;;;;;5071293;28;20265;-56
2021/06/08 00:02:28;;;;;;;1999.90;999.90;;;16.90;97.30;;;;;;5071611;28;20171;-50
2021/06/08 00:04:54;;;;;;;1999.90;999.90;;;17.10;95.70;;;;;;5071380;28;20237;-60
2021/06/08 00:07:21;;;;;;;1999.90;999.90;;;17.50;93.60;;;;;;5071005;28;20643;-49
2021/06/08 00:09:48;;;;;;;1999.90;999.90;;;17.70;92.30;;;;;;5071553;28;20649;-53
2021/06/08 00:12:15;;;;;;;1999.90;999.90;;;17.80;92.50;;;;;;5070973;28;20224;-50
2021/06/08 00:14:41;;;;;;;1999.90;999.90;;;17.80;93.50;;;;;;5071649;28;20196;-50
2021/06/08 00:17:08;;;;;;;1999.90;999.90;;;17.60;93.90;;;;;;5071500;28;20175;-51
2021/06/08 00:19:35;;;;;;;1999.90;999.90;;;17.40;95.50;;;;;;5071190;28;20168;-54
2021/06/08 00:22:02;;;;;;;1999.90;999.90;;;17.30;96.20;;;;;;5071081;28;20225;-49
2021/06/08 00:24:29;;;;;;;1999.90;999.90;;;17.10;97.70;;;;;;5071251;28;20176;-50
2021/06/08 00:26:55;;;;;;;1999.90;999.90;;;17.00;98.40;;;;;;5070903;28;20510;-53
2021/06/08 00:29:22;;;;;;;1999.90;999.90;;;16.80;99.90;;;;;;5070920;28;20172;-50
2021/06/08 00:31:49;;;;;;;1999.90;999.90;;;16.70;99.90;;;;;;5071117;28;20678;-60
2021/06/08 00:34:15;;;;;;;1999.90;999.90;;;16.60;99.90;;;;;;5070668;28;20642;-50
2021/06/08 00:36:42;;;;;;;1999.90;999.90;;;16.60;99.90;;;;;;5069942;28;20419;-49
2021/06/08 00:39:09;;;;;;;1999.90;999.90;;;16.70;99.90;;;;;;5070766;28;20207;-52
2021/06/08 00:41:42;;;;;;;1999.90;999.90;;;16.80;99.90;;;;;;5070943;28;20164;-56
2021/06/08 00:44:14;;;;;;;1999.90;999.90;;;16.70;99.90;;;;;;5071045;28;20153;-57
2021/06/08 00:46:42;;;;;;;1999.90;999.90;;;16.70;99.90;;;;;;5071414;28;20153;-59
2021/06/08 00:49:09;;;;;;;1999.90;999.90;;;16.60;99.90;;;;;;5070676;28;20224;-52
2021/06/08 00:51:36;;;;;;;1999.90;999.90;;;16.40;99.90;;;;;;5070993;28;20164;-59
2021/06/08 00:54:06;;;;;;;1999.90;999.90;;;16.40;99.90;;;;;;5070796;28;20252;-50
2021/06/08 00:56:34;;;;;;;1999.90;999.90;;;16.30;99.90;;;;;;5070700;28;20610;-51
2021/06/08 00:59:01;;;;;;;1999.90;999.90;;;16.30;99.90;;;;;;5070981;28;20313;-54
2021/06/08 01:01:28;;;;;;;1999.90;999.90;;;16.30;99.90;;;;;;5070582;28;20169;-55
2021/06/08 01:03:55;;;;;;;1999.90;999.90;;;16.20;99.90;;;;;;5070784;28;20195;-54
2021/06/08 01:06:21;;;;;;;1999.90;999.90;;;16.20;99.90;;;;;;5070839;28;20215;-53
2021/06/08 01:08:48;;;;;;;1999.90;999.90;;;16.20;99.90;;;;;;5069502;28;20230;-50
2021/06/08 01:11:16;;;;;;;1999.90;999.90;;;16.10;99.90;;;;;;5070341;28;20305;-52
2021/06/08 01:13:43;;;;;;;1999.90;999.90;;;16.10;99.90;;;;;;5070921;28;20414;-52
2021/06/08 01:16:10;;;;;;;1999.90;999.90;;;16.10;99.90;;;;;;5070610;28;20222;-58
2021/06/08 01:18:37;;;;;;;1999.90;999.90;;;16.20;99.90;;;;;;5070455;28;20270;-59
2021/06/08 01:21:07;;;;;;;1999.90;999.90;;;16.10;99.90;;;;;;5070912;28;20602;-60
2021/06/08 01:23:35;;;;;;;1999.90;999.90;;;16.00;99.90;;;;;;5070720;28;20455;-51
2021/06/08 01:26:03;;;;;;;1999.90;999.90;;;16.00;99.90;;;;;;5070465;28;20226;-51
2021/06/08 01:28:32;;;;;;;1999.90;999.90;;;16.00;99.90;;;;;;5070688;28;20250;-51
2021/06/08 01:31:10;;;;;;;1999.90;999.90;;;15.90;99.90;;;;;;5070324;28;20157;-50
2021/06/08 01:33:42;;;;;;;1999.90;999.90;;;15.80;99.90;;;;;;5070357;28;20161;-61
2021/06/08 01:36:11;;;;;;;1999.90;999.90;;;15.90;99.90;;;;;;5070388;28;20160;-53
2021/06/08 01:38:39;;;;;;;1999.90;999.90;;;15.90;99.90;;;;;;5070124;28;20204;-53
2021/06/08 01:41:06;;;;;;;1999.90;999.90;;;15.90;99.90;;;;;;5070549;28;20161;-55
2021/06/08 01:43:33;;;;;;;1999.90;999.90;;;15.90;99.90;;;;;;5070305;28;20244;-50
2021/06/08 01:46:00;;;;;;;1999.90;999.90;;;15.80;99.90;;;;;;5072748;28;20176;-51
2021/06/08 01:48:26;;;;;;;1999.90;999.90;;;15.90;99.90;;;;;;5073659;28;20179;-53
2021/06/08 01:50:57;;;;;;;1999.90;999.90;;;15.80;99.90;;;;;;5074162;28;20171;-58
2021/06/08 01:53:42;;;;;;;1999.90;999.90;;;15.80;99.90;;;;;;5073669;28;20302;-53
2021/06/08 01:56:16;;;;;;;1999.90;999.90;;;15.70;99.90;;;;;;5074121;28;20247;-51
2021/06/08 01:59:06;;;;;;;1999.90;999.90;;;15.60;99.90;;;;;;5073781;28;20291;-52
2021/06/08 02:01:48;;;;;;;1999.90;999.90;;;15.60;99.90;;;;;;5074016;28;20664;-54
2021/06/08 02:04:24;;;;;;;1999.90;999.90;;;15.50;99.90;;;;;;5073674;28;20153;-53
2021/06/08 02:07:11;;;;;;;1999.90;999.90;;;15.50;99.90;;;;;;5073962;28;20181;-49
2021/06/08 02:09:59;;;;;;;1999.90;999.90;;;15.50;99.90;;;;;;5073489;28;20260;-51
2021/06/08 02:12:27;;;;;;;1999.90;999.90;;;15.50;99.90;;;;;;5073589;28;20165;-51
2021/06/08 02:15:07;;;;;;;1999.90;999.90;;;15.50;99.90;;;;;;5073161;28;20173;-54
2021/06/08 02:17:52;;;;;;;1999.90;999.90;;;15.40;99.90;;;;;;5073646;28;20200;-49
2021/06/08 02:20:39;;;;;;;1999.90;999.90;;;15.40;99.90;;;;;;5073412;28;20164;-49
2021/06/08 02:23:11;;;;;;;1999.90;999.90;;;15.20;99.90;;;;;;5073316;28;20160;-50
2021/06/08 02:25:39;;;;;;;1999.90;999.90;;;15.20;99.90;;;;;;5073253;28;20294;-50
2021/06/08 02:28:10;;;;;;;1999.90;999.90;;;15.20;99.90;;;;;;5073241;28;20214;-53
2021/06/08 02:30:38;;;;;;;1999.90;999.90;;;15.20;99.90;;;;;;5073392;28;20168;-58
2021/06/08 02:33:06;;;;;;;1999.90;999.90;;;15.10;99.90;;;;;;5073199;28;20184;-59
2021/06/08 02:35:34;;;;;;;1999.90;999.90;;;15.10;99.90;;;;;;5072881;28;20248;-59
2021/06/08 02:38:03;;;;;;;1999.90;999.90;;;15.10;99.90;;;;;;5072998;28;20215;-54
2021/06/08 02:40:31;;;;;;;1999.90;999.90;;;15.10;99.90;;;;;;5073049;28;20164;-50
2021/06/08 02:43:00;;;;;;;1999.90;999.90;;;15.00;99.90;;;;;;5072735;28;20180;-57
2021/06/08 02:45:29;;;;;;;1999.90;999.90;;;15.00;99.90;;;;;;5072836;28;20169;-57
2021/06/08 02:47:57;;;;;;;1999.90;999.90;;;15.00;99.90;;;;;;5072792;28;20160;-51
2021/06/08 02:50:25;;;;;;;1999.90;999.90;;;15.00;99.90;;;;;;5072517;28;20214;-53
2021/06/08 02:52:56;;;;;;;1999.90;999.90;;;15.00;99.90;;;;;;5073086;28;20595;-52
2021/06/08 02:55:25;;;;;;;1999.90;999.90;;;15.10;99.90;;;;;;5072664;28;20194;-49
2021/06/08 02:57:54;;;;;;;1999.90;999.90;;;15.10;99.90;;;;;;5072282;28;20279;-48
2021/06/08 03:00:22;;;;;;;1999.90;999.90;;;15.00;99.90;;;;;;5072788;28;20226;-48
2021/06/08 03:02:52;;;;;;;1999.90;999.90;;;15.10;99.90;;;;;;5072247;28;20191;-49
2021/06/08 03:05:30;;;;;;;1999.90;999.90;;;15.00;99.90;;;;;;5072452;28;20669;-52
2021/06/08 03:08:02;;;;;;;1999.90;999.90;;;14.90;99.90;;;;;;5072744;28;20206;-54
2021/06/08 03:10:34;;;;;;;1999.90;999.90;;;14.90;99.90;;;;;;5072372;28;20210;-48
2021/06/08 03:13:02;;;;;;;1999.90;999.90;;;14.90;99.90;;;;;;5072247;28;20350;-51
2021/06/08 03:15:31;;;;;;;1999.90;999.90;;;14.90;99.90;;;;;;5072354;28;20183;-51
2021/06/08 03:17:58;;;;;;;1999.90;999.90;;;14.90;99.90;;;;;;5072033;28;20204;-53
2021/06/08 03:20:48;;;;;;;1999.90;999.90;;;14.90;99.90;;;;;;5072146;28;20240;-51
2021/06/08 03:23:20;;;;;;;1999.90;999.90;;;15.00;99.90;;;;;;5072124;28;20710;-49
2021/06/08 03:25:49;;;;;;;1999.90;999.90;;;15.10;99.90;;;;;;5072039;28;20153;-55
2021/06/08 03:28:21;;;;;;;1999.90;999.90;;;15.20;99.90;;;;;;5072263;28;20202;-47
2021/06/08 03:30:49;;;;;;;1999.90;999.90;;;15.20;99.90;;;;;;5071887;28;20159;-53
2021/06/08 03:33:19;;;;;;;1999.90;999.90;;;15.30;99.90;;;;;;5071772;28;20168;-49
2021/06/08 03:35:46;;;;;;;1999.90;999.90;;;15.70;99.90;;;;;;5072144;28;20156;-48
2021/06/08 03:38:15;;;;;;;1999.90;999.90;;;15.60;99.90;;;;;;5072023;28;20196;-51
2021/06/08 03:40:44;;;;;;;1999.90;999.90;;;15.60;99.90;;;;;;5071572;28;20252;-49
2021/06/08 03:43:12;;;;;;;1999.90;999.90;;;15.70;99.90;;;;;;5072291;28;20243;-52
2021/06/08 03:45:39;;;;;;;1999.90;999.90;;;15.70;99.90;;;;;;5071635;28;20176;-53
2021/06/08 03:48:07;;;;;;;1999.90;999.90;;;15.60;99.90;;;;;;5071670;28;20176;-49
2021/06/08 03:50:35;;;;;;;1999.90;999.90;;;15.50;99.90;;;;;;5071619;28;20224;-51
2021/06/08 03:53:03;;;;;;;1999.90;999.90;;;15.30;99.90;;;;;;5071404;28;20173;-52
2021/06/08 03:55:30;;;;;;;1999.90;999.90;;;15.10;99.90;;;;;;5071357;28;20255;-51
2021/06/08 03:58:00;;;;;;;1999.90;999.90;;;15.00;99.90;;;;;;5071606;28;20192;-56
2021/06/08 04:00:27;;;;;;;1999.90;999.90;;;14.90;99.90;;;;;;5071368;28;20165;-52
2021/06/08 04:02:54;;;;;;;1999.90;999.90;;;14.90;99.90;;;;;;5071338;28;20199;-56
2021/06/08 04:05:21;;;;;;;1999.90;999.90;;;15.20;99.90;;;;;;5071233;28;20180;-48
2021/06/08 04:07:49;;;;;;;1999.90;999.90;;;16.00;99.90;;;;;;5070848;28;20306;-49
2021/06/08 04:10:21;;;;;;;1999.90;999.90;;;16.50;99.90;;;;;;5071395;28;20233;-56
2021/06/08 04:12:48;;;;;;;1999.90;999.90;;;16.80;99.90;;;;;;5071344;28;20169;-49
2021/06/08 04:15:16;;;;;;;1999.90;999.90;;;16.80;99.90;;;;;;5071376;28;20196;-53
2021/06/08 04:17:44;;;;;;;1999.90;999.90;;;16.80;99.90;;;;;;5071134;28;20846;-56
2021/06/08 04:20:12;;;;;;;1999.90;999.90;;;16.80;99.90;;;;;;5071499;28;20165;-48
2021/06/08 04:22:44;;;;;;;1999.90;999.90;;;16.80;99.90;;;;;;5071001;28;20540;-58
2021/06/08 04:25:11;;;;;;;1999.90;999.90;;;16.80;99.90;;;;;;5071309;28;20161;-50
2021/06/08 04:27:37;;;;;;;1999.90;999.90;;;16.60;99.90;;;;;;5070885;28;20172;-58
2021/06/08 04:30:08;;;;;;;1999.90;999.90;;;16.40;99.90;;;;;;5070937;28;20537;-50
2021/06/08 04:32:36;;;;;;;1999.90;999.90;;;16.20;99.90;;;;;;5071162;28;20171;-54
2021/06/08 04:35:06;;;;;;;1999.90;999.90;;;16.10;99.90;;;;;;5070571;28;20528;-58
2021/06/08 04:37:33;;;;;;;1999.90;999.90;;;16.00;99.90;;;;;;5070661;28;20188;-52
2021/06/08 04:40:00;;;;;;;1999.90;999.90;;;16.00;99.90;;;;;;5071158;28;20176;-50
2021/06/08 04:42:27;;;;;;;1999.90;999.90;;;15.90;99.90;;;;;;5070743;28;20160;-49
2021/06/08 04:44:54;;;;;;;1999.90;999.90;;;15.90;99.90;;;;;;5070591;28;20176;-56
2021/06/08 04:47:22;;;;;;;1999.90;999.90;;;15.80;99.90;;;;;;5071053;28;20530;-53
2021/06/08 04:49:50;;;;;;;1999.90;999.90;;;15.70;99.90;;;;;;5070291;28;20216;-51
2021/06/08 04:52:17;;;;;;;1999.90;999.90;;;15.70;99.90;;;;;;5070853;28;20172;-55
2021/06/08 04:54:44;;;;;;;1999.90;999.90;;;15.60;99.90;;;;;;5070963;28;20643;-58
2021/06/08 04:57:14;;;;;;;1999.90;999.90;;;15.50;99.90;;;;;;5071085;28;20168;-53
2021/06/08 04:59:50;;;;;;;1999.90;999.90;;;15.50;99.90;;;;;;5070883;28;20635;-55
2021/06/08 05:02:25;;;;;;;1999.90;999.90;;;15.50;99.90;;;;;;5071267;28;20542;-57
2021/06/08 05:04:53;;;;;;;1999.90;999.90;;;15.50;99.90;;;;;;5071213;28;20164;-52
2021/06/08 05:07:23;;;;;;;1999.90;999.90;;;15.30;99.90;;;;;;5070755;28;20179;-58
2021/06/08 05:09:52;;;;;;;1999.90;999.90;;;15.40;99.90;;;;;;5070703;28;20168;-53
2021/06/08 05:12:21;;;;;;;1999.90;999.90;;;15.30;99.90;;;;;;5070490;28;20161;-48
2021/06/08 05:14:52;;;;;;;1999.90;999.90;;;15.30;99.90;;;;;;5070689;28;20169;-59
2021/06/08 05:17:22;;;;;;;1999.90;999.90;;;15.30;99.90;;;;;;5070390;28;20186;-54
2021/06/08 05:19:50;;;;;;;1999.90;999.90;;;15.40;99.90;;;;;;5071035;28;20161;-59
2021/06/08 05:22:24;;;;;;;1999.90;999.90;;;15.30;99.90;;;;;;5074632;28;20172;-49
2021/06/08 05:24:53;;;;;;;1999.90;999.90;;;15.40;99.90;;;;;;5074250;28;20519;-58
2021/06/08 05:27:22;;;;;;;1999.90;999.90;;;15.50;99.90;;;;;;5074301;28;20172;-52
2021/06/08 05:29:53;;;;;;;1999.90;999.90;;;15.30;99.90;;;;;;5074406;28;20168;-49
2021/06/08 05:32:21;;;;;;;1999.90;999.90;;;15.30;99.90;;;;;;5073761;28;20218;-53
2021/06/08 05:34:47;;;;;;;1999.90;999.90;;;15.30;99.90;;;;;;5073700;28;20661;-53
2021/06/08 05:37:16;;;;;;;1999.90;999.90;;;15.20;99.90;;;;;;5074731;28;20172;-49
2021/06/08 05:39:44;;;;;;;1999.90;999.90;;;15.20;99.90;;;;;;5073763;28;20555;-58
2021/06/08 05:42:16;;;;;;;1999.90;999.90;;;15.00;99.90;;;;;;5073693;28;20179;-55
2021/06/08 05:44:43;;;;;;;1999.90;999.90;;;15.00;99.90;;;;;;5073944;28;20176;-53
2021/06/08 05:47:10;;;;;;;1999.90;999.90;;;15.00;99.90;;;;;;5073726;28;20191;-50
2021/06/08 05:49:39;;;;;;;1999.90;999.90;;;14.90;99.90;;;;;;5073308;28;20242;-50
2021/06/08 05:52:08;;;;;;;1999.90;999.90;;;14.80;99.90;;;;;;5073556;28;20184;-57
2021/06/08 05:54:35;;;;;;;1999.90;999.90;;;14.80;99.90;;;;;;5073343;28;20168;-51
2021/06/08 05:57:02;;;;;;;1999.90;999.90;;;14.70;99.90;;;;;;5073554;28;20184;-55
2021/06/08 05:59:29;;;;;;;1999.90;999.90;;;14.70;99.90;;;;;;5073335;28;20662;-49
2021/06/08 06:01:57;;;;;;;1999.90;999.90;;;14.70;99.90;;;;;;5073281;28;20508;-56
2021/06/08 06:04:25;;;;;;;1999.90;999.90;;;14.70;99.90;;;;;;5073128;28;20196;-46
2021/06/08 06:06:52;;;;;;;1999.90;999.90;;;14.70;99.90;;;;;;5073338;28;20200;-45
2021/06/08 06:09:23;;;;;;;1999.90;999.90;;;15.00;99.90;;;;;;5072796;28;20601;-43
2021/06/08 06:11:53;;;;;;;1999.90;999.90;;;15.30;99.90;;;;;;5073147;28;20165;-44
2021/06/08 06:14:24;;;;;;;1999.90;999.90;;;15.40;99.90;;;;;;5073140;28;20593;-46
2021/06/08 06:16:54;;;;;;;1999.90;999.90;;;15.50;99.90;;;;;;5073066;28;20299;-44
2021/06/08 06:19:25;;;;;;;1999.90;999.90;;;15.50;99.90;;;;;;5073128;28;20318;-54
2021/06/08 06:21:56;;;;;;;1999.90;999.90;;;15.60;99.90;;;;;;5072829;28;20169;-50
2021/06/08 06:24:26;;;;;;;1999.90;999.90;;;15.50;99.90;;;;;;5072630;28;20173;-44
2021/06/08 06:26:54;;;;;;;1999.90;999.90;;;15.50;99.90;;;;;;5072931;28;20211;-45
2021/06/08 06:29:21;;;;;;;1999.90;999.90;;;15.40;99.90;;;;;;5070931;28;20685;-51
2021/06/08 06:31:49;;;;;;;1999.90;999.90;;;15.40;99.90;;;;;;5071975;28;20168;-48
2021/06/08 06:34:22;;;;;;;1999.90;999.90;;;15.50;99.90;;;;;;5073157;28;20168;-53
2021/06/08 06:36:50;;;;;;;1999.90;999.90;;;15.50;99.90;;;;;;5072631;28;20592;-46
2021/06/08 06:39:26;;;;;;;1999.90;999.90;;;15.60;99.90;;;;;;5072894;28;20613;-49
2021/06/08 06:41:57;;;;;;;1999.90;999.90;;;15.70;99.90;;;;;;5072410;28;20183;-48
2021/06/08 06:44:25;;;;;;;1999.90;999.90;;;15.60;99.90;;;;;;5072120;28;20164;-51
2021/06/08 06:46:52;;;;;;;1999.90;999.90;;;15.50;99.90;;;;;;5071581;28;20540;-52
2021/06/08 06:49:21;;;;;;;1999.90;999.90;;;15.50;99.90;;;;;;5072358;28;20228;-48
2021/06/08 06:51:48;;;;;;;1999.90;999.90;;;15.50;99.90;;;;;;5072106;28;20546;-47
2021/06/08 06:54:15;;;;;;;1999.90;999.90;;;15.50;99.90;;;;;;5072220;28;20177;-59
2021/06/08 06:56:44;;;;;;;1999.90;999.90;;;15.50;99.90;;;;;;5072010;28;20623;-48
2021/06/08 06:59:12;;;;;;;1999.90;999.90;;;15.60;99.90;;;;;;5071857;28;20208;-54
2021/06/08 07:01:41;;;;;;;1999.90;999.90;;;15.60;99.90;;;;;;5072311;28;20176;-51
2021/06/08 07:04:10;;;;;;;1999.90;999.90;;;15.90;99.90;;;;;;5072067;28;20175;-55
2021/06/08 07:06:39;;;;;;;1999.90;999.90;;;16.10;99.90;;;;;;5071854;28;20179;-52
2021/06/08 07:09:07;;;;;;;1999.90;999.90;;;16.30;99.90;;;;;;5071880;28;20196;-54
2021/06/08 07:11:35;;;;;;;1999.90;999.90;;;16.40;99.90;;;;;;5071576;28;20225;-52
2021/06/08 07:14:03;;;;;;;1999.90;999.90;;;16.30;99.90;;;;;;5071459;28;20180;-50
2021/06/08 07:16:30;;;;;;;1999.90;999.90;;;16.30;99.90;;;;;;5071538;28;20160;-51
2021/06/08 07:18:57;;;;;;;1999.90;999.90;;;16.30;99.90;;;;;;5071243;28;20200;-54
2021/06/08 07:21:25;;;;;;;1999.90;999.90;;;16.40;99.90;;;;;;5071191;28;20263;-51
2021/06/08 07:23:54;;;;;;;1999.90;999.90;;;16.50;99.90;;;;;;5071634;28;20191;-53
2021/06/08 07:26:22;;;;;;;1999.90;999.90;;;16.50;99.90;;;;;;5071618;28;20161;-47
2021/06/08 07:28:49;;;;;;;1999.90;999.90;;;16.70;99.90;;;;;;5071246;28;20528;-57
2021/06/08 07:31:50;;;;;;;1999.90;999.90;;;16.90;99.90;;;;;;5071470;28;20259;-57
2021/06/08 07:35:03;;;;;;;1999.90;999.90;;;17.00;99.90;;;;;;5071160;28;20149;-48
2021/06/08 07:37:32;;;;;;;1999.90;999.90;;;17.20;99.90;;;;;;5048846;28;20358;-58
2021/06/08 07:40:08;;;;;;;1999.90;999.90;;;17.10;99.90;;;;;;5066965;28;20177;-59
2021/06/08 07:42:46;;;;;;;1999.90;999.90;;;17.30;99.90;;;;;;5070452;28;20758;-60
2021/06/08 07:45:18;;;;;;;1999.90;999.90;;;17.50;99.90;;;;;;5071017;28;20184;-60
2021/06/08 07:47:50;;;;;;;1999.90;999.90;;;17.50;99.90;;;;;;5071331;28;20164;-58
2021/06/08 07:50:18;;;;;;;1999.90;999.90;;;17.60;99.90;;;;;;5071111;28;20209;-58
2021/06/08 07:52:45;;;;;;;1999.90;999.90;;;17.60;99.90;;;;;;5071130;28;20720;-51
2021/06/08 07:55:13;;;;;;;1999.90;999.90;;;17.70;99.90;;;;;;5070900;28;20199;-49
2021/06/08 07:57:40;;;;;;;1999.90;999.90;;;17.90;99.90;;;;;;5070755;28;20757;-49
2021/06/08 08:00:10;;;;;;;1999.90;999.90;;;18.00;99.90;;;;;;5070665;28;20179;-52
2021/06/08 08:02:38;;;;;;;1999.90;999.90;;;18.20;99.90;;;;;;5070469;28;20243;-57
2021/06/08 08:05:10;;;;;;;1999.90;999.90;;;18.20;99.90;;;;;;5070830;28;20199;-55
2021/06/08 08:07:38;;;;;;;1999.90;999.90;;;18.30;99.90;;;;;;5070089;28;20203;-47
2021/06/08 08:10:05;;;;;;;1999.90;999.90;;;18.40;99.90;;;;;;5070752;28;20591;-45
2021/06/08 08:12:37;;;;;;;1999.90;999.90;;;18.40;99.90;;;;;;5070792;28;20263;-46
2021/06/08 08:15:05;;;;;;;1999.90;999.90;;;18.50;99.90;;;;;;5069673;28;20182;-45
2021/06/08 08:17:33;;;;;;;1999.90;999.90;;;18.50;99.90;;;;;;5070141;28;20539;-46
2021/06/08 08:20:02;;;;;;;1999.90;999.90;;;18.60;99.90;;;;;;5070788;28;20219;-48
2021/06/08 08:22:28;;;;;;;1999.90;999.90;;;18.60;99.90;;;;;;5070250;28;20172;-45
2021/06/08 08:24:55;;;;;;;1999.90;999.90;;;18.70;99.90;;;;;;5070528;28;20255;-45
2021/06/08 08:27:24;;;;;;;1999.90;999.90;;;18.70;99.90;;;;;;5070240;28;20653;-47
2021/06/08 08:29:53;;;;;;;1999.90;999.90;;;19.20;99.90;;;;;;5069988;28;20627;-48
2021/06/08 08:32:20;;;;;;;1999.90;999.90;;;19.50;99.90;;;;;;5069247;28;20169;-46
2021/06/08 08:34:46;;;;;;;1999.90;999.90;;;19.50;99.90;;;;;;5070616;28;20156;-47
2021/06/08 08:37:13;;;;;;;1999.90;999.90;;;19.50;99.90;;;;;;5070018;28;20215;-47
2021/06/08 08:39:40;;;;;;;1999.90;999.90;;;19.50;99.90;;;;;;5070180;28;20177;-59
2021/06/08 08:42:07;;;;;;;1999.90;999.90;;;19.40;99.90;;;;;;5070627;28;20176;-57
2021/06/08 08:44:34;;;;;;;1999.90;999.90;;;19.60;99.90;;;;;;5070073;28;20172;-58
2021/06/08 08:47:01;;;;;;;1999.90;999.90;;;19.70;99.90;;;;;;5069126;28;20742;-56
2021/06/08 08:49:28;;;;;;;1999.90;999.90;;;19.70;99.90;;;;;;5070070;28;20417;-47
2021/06/08 08:51:56;;;;;;;1999.90;999.90;;;19.80;99.90;;;;;;5070117;28;20168;-45
2021/06/08 08:54:25;;;;;;;1999.90;999.90;;;19.90;99.90;;;;;;5071827;28;20168;-47
2021/06/08 08:56:52;;;;;;;1999.90;999.90;;;19.90;99.90;;;;;;5074563;28;20661;-46
2021/06/08 08:59:20;;;;;;;1999.90;999.90;;;20.00;99.90;;;;;;5074411;28;20207;-46
2021/06/08 09:01:50;;;;;;;1999.90;999.90;;;20.10;99.90;;;;;;5074351;28;20175;-49
2021/06/08 09:04:19;;;;;;;1999.90;999.90;;;20.10;99.30;;;;;;5074372;28;20192;-53
2021/06/08 09:06:46;;;;;;;1999.90;999.90;;;20.20;99.20;;;;;;5074240;28;20267;-60
2021/06/08 09:09:13;;;;;;;1999.90;999.90;;;20.30;98.40;;;;;;5074483;28;20172;-55
2021/06/08 09:11:41;;;;;;;1999.90;999.90;;;20.40;96.80;;;;;;5073950;28;20190;-47
2021/06/08 09:14:10;;;;;;;1999.90;999.90;;;20.60;95.70;;;;;;5073445;28;20188;-54
2021/06/08 09:16:37;;;;;;;1999.90;999.90;;;20.70;95.60;;;;;;5074262;28;20181;-55
2021/06/08 09:19:07;;;;;;;1999.90;999.90;;;20.80;92.90;;;;;;5073752;28;20204;-54
2021/06/08 09:21:38;;;;;;;1999.90;999.90;;;20.90;92.60;;;;;;5073661;28;20176;-50
2021/06/08 09:24:26;;;;;;;1999.90;999.90;;;21.00;93.80;;;;;;5074410;28;20173;-61
2021/06/08 09:26:56;;;;;;;1999.90;999.90;;;21.20;90.10;;;;;;5073537;28;20230;-50
2021/06/08 09:29:34;;;;;;;1999.90;999.90;;;21.20;92.50;;;;;;5074095;28;20229;-54
2021/06/08 09:32:23;;;;;;;1999.90;999.90;;;21.40;90.80;;;;;;5073897;28;20168;-55
2021/06/08 09:35:01;;;;;;;1999.90;999.90;;;21.60;91.00;;;;;;5074094;28;20524;-50
2021/06/08 09:37:46;;;;;;;1999.90;999.90;;;21.70;90.50;;;;;;5073414;28;20657;-47
2021/06/08 09:40:22;;;;;;;1999.90;999.90;;;21.70;88.20;;;;;;5073761;28;20156;-52
2021/06/08 09:43:18;;;;;;;1999.90;999.90;;;21.80;92.50;;;;;;5073768;28;20251;-56
2021/06/08 09:45:51;;;;;;;1999.90;999.90;;;22.10;93.50;;;;;;5072445;28;20573;-52
2021/06/08 09:48:18;;;;;;;1999.90;999.90;;;22.10;93.80;;;;;;5073178;28;20247;-52
2021/06/08 09:50:49;;;;;;;1999.90;999.90;;;22.10;90.70;;;;;;5073986;28;20208;-53
2021/06/08 09:53:26;;;;;;;1999.90;999.90;;;22.00;90.10;;;;;;5073594;28;20515;-49
2021/06/08 09:56:07;;;;;;;1999.90;999.90;;;22.10;89.10;;;;;;5073521;28;20644;-52
2021/06/08 09:58:35;;;;;;;1999.90;999.90;;;22.10;88.70;;;;;;5073348;28;20230;-53
2021/06/08 10:01:22;;;;;;;1999.90;999.90;;;22.30;88.70;;;;;;5073490;28;20183;-56
2021/06/08 10:03:54;;;;;;;1999.90;999.90;;;22.50;88.40;;;;;;5073412;28;20247;-52
2021/06/08 10:06:38;;;;;;;1999.90;999.90;;;22.60;89.00;;;;;;5072856;28;20638;-55
2021/06/08 10:09:07;;;;;;;1999.90;999.90;;;22.80;78.00;;;;;;5073232;28;20174;-51
2021/06/08 10:11:35;;;;;;;1999.90;999.90;;;22.90;77.20;;;;;;5073112;28;20184;-56
2021/06/08 10:14:19;;;;;;;1999.90;999.90;;;22.90;75.60;;;;;;5073192;28;20176;-59
2021/06/08 10:17:10;;;;;;;1999.90;999.90;;;23.00;80.30;;;;;;5073097;28;20168;-57
2021/06/08 10:19:37;;;;;;;1999.90;999.90;;;23.10;81.00;;;;;;5072916;28;20892;-60
2021/06/08 10:22:03;;;;;;;1999.90;999.90;;;23.20;79.40;;;;;;5073404;28;20244;-58
2021/06/08 10:24:31;;;;;;;1999.90;999.90;;;23.30;79.80;;;;;;5072636;28;20192;-58
2021/06/08 10:26:59;;;;;;;1999.90;999.90;;;23.40;77.80;;;;;;5072628;28;20168;-49
2021/06/08 10:29:31;;;;;;;1999.90;999.90;;;23.60;80.30;;;;;;5073029;28;20171;-62
2021/06/08 10:31:58;;;;;;;1999.90;999.90;;;23.60;74.50;;;;;;5072715;28;20179;-56
2021/06/08 10:34:27;;;;;;;1999.90;999.90;;;23.60;69.40;;;;;;5072315;28;20177;-55
2021/06/08 10:36:55;;;;;;;1999.90;999.90;;;23.60;70.00;;;;;;5072480;28;20583;-47
2021/06/08 10:39:25;;;;;;;1999.90;999.90;;;23.60;68.40;;;;;;5072245;28;20571;-50
2021/06/08 10:41:54;;;;;;;1999.90;999.90;;;23.60;67.50;;;;;;5072987;28;20190;-45
2021/06/08 10:44:23;;;;;;;1999.90;999.90;;;23.60;68.40;;;;;;5072298;28;20179;-50
2021/06/08 10:46:56;;;;;;;1999.90;999.90;;;23.70;70.80;;;;;;5071974;28;20198;-47
2021/06/08 10:49:40;;;;;;;1999.90;999.90;;;23.70;70.60;;;;;;5072397;28;20303;-44
2021/06/08 10:52:12;;;;;;;1999.90;999.90;;;23.70;65.70;;;;;;5072219;28;20282;-44
2021/06/08 10:54:43;;;;;;;1999.90;999.90;;;23.80;67.10;;;;;;5072188;28;20164;-42
2021/06/08 10:57:14;;;;;;;1999.90;999.90;;;23.90;68.20;;;;;;5072573;28;20161;-49
2021/06/08 10:59:52;;;;;;;1999.90;999.90;;;24.00;66.90;;;;;;5072552;28;20204;-43
2021/06/08 11:03:00;;;;;;;1999.90;999.90;;;24.00;62.10;;;;;;5072424;28;20157;-42
2021/06/08 11:05:50;;;;;;;1999.90;999.90;;;24.20;65.40;;;;;;5061649;28;20180;-52
2021/06/08 11:08:18;;;;;;;1999.90;999.90;;;23.90;67.20;;;;;;5072121;28;20645;-53
2021/06/08 11:10:52;;;;;;;1999.90;999.90;;;24.10;67.10;;;;;;5072277;28;20169;-53
2021/06/08 11:13:19;;;;;;;1999.90;999.90;;;24.20;65.30;;;;;;5071999;28;20213;-52
2021/06/08 11:15:47;;;;;;;1999.90;999.90;;;24.50;65.20;;;;;;5072283;28;20172;-56
2021/06/08 11:18:21;;;;;;;1999.90;999.90;;;24.60;64.20;;;;;;5071103;28;20716;-48
2021/06/08 11:20:57;;;;;;;1999.90;999.90;;;24.50;66.70;;;;;;5072274;28;20611;-47
2021/06/08 11:23:44;;;;;;;1999.90;999.90;;;24.20;68.40;;;;;;5071927;28;20160;-47
2021/06/08 11:26:19;;;;;;;1999.90;999.90;;;24.10;69.80;;;;;;5072450;28;20207;-47
2021/06/08 11:28:51;;;;;;;1999.90;999.90;;;24.10;69.00;;;;;;5071784;28;20152;-50
2021/06/08 11:31:24;;;;;;;1999.90;999.90;;;24.00;67.70;;;;;;5072109;28;20173;-56
2021/06/08 11:34:01;;;;;;;1999.90;999.90;;;23.90;64.40;;;;;;5071568;28;20149;-44
2021/06/08 11:36:30;;;;;;;1999.90;999.90;;;23.80;62.30;;;;;;5071475;28;20225;-43
2021/06/08 11:39:22;;;;;;;1999.90;999.90;;;24.00;63.00;;;;;;5071850;28;20610;-44
2021/06/08 11:41:57;;;;;;;1999.90;999.90;;;24.10;62.30;;;;;;5068244;28;20221;-43
2021/06/08 11:44:24;;;;;;;1999.90;999.90;;;24.20;59.20;;;;;;5071015;28;20168;-48
2021/06/08 11:47:00;;;;;;;1999.90;999.90;;;24.30;58.70;;;;;;5071601;28;20165;-49
2021/06/08 11:49:29;;;;;;;1999.90;999.90;;;24.50;56.80;;;;;;5071125;28;20293;-48
2021/06/08 11:52:12;;;;;;;1999.90;999.90;;;24.60;56.70;;;;;;5069901;28;20538;-48
2021/06/08 11:54:42;;;;;;;1999.90;999.90;;;24.60;56.60;;;;;;5071189;28;20172;-48
2021/06/08 11:57:13;;;;;;;1999.90;999.90;;;24.70;57.90;;;;;;5071449;28;20153;-46
2021/06/08 11:59:45;;;;;;;1999.90;999.90;;;24.70;56.90;;;;;;5070671;28;20290;-47
2021/06/08 12:02:27;;;;;;;1999.90;999.90;;;24.60;57.10;;;;;;5071116;28;20252;-49
2021/06/08 12:05:15;;;;;;;1999.90;999.90;;;24.70;58.30;;;;;;5070808;28;20178;-51
2021/06/08 12:07:42;;;;;;;1999.90;999.90;;;24.70;56.70;;;;;;5070998;28;20238;-58
2021/06/08 12:10:10;;;;;;;1999.90;999.90;;;24.80;57.80;;;;;;5070697;28;20183;-51
2021/06/08 12:13:03;;;;;;;1999.90;999.90;;;24.70;55.70;;;;;;5070667;28;20160;-49
2021/06/08 12:15:37;;;;;;;1999.90;999.90;;;24.50;55.70;;;;;;5069900;28;20230;-48